createdAt,value
2019-05-01T00:00:23.972Z,71.72
2019-05-01T00:03:17.926Z,71.80
2019-05-01T00:05:50.660Z,71.80
2019-05-01T00:08:19.629Z,71.21
2019-05-01T00:10:48.413Z,71.67
2019-05-01T00:13:17.636Z,72.06
2019-05-01T00:15:47.371Z,72.01
2019-05-01T00:18:16.338Z,72.13
2019-05-01T00:20:45.234Z,72.46
2019-05-01T00:23:14.200Z,73.09
2019-05-01T00:25:43.281Z,73.72
2019-05-01T00:28:12.365Z,74.16
2019-05-01T00:30:41.805Z,72.49
2019-05-01T00:33:10.757Z,71.71
2019-05-01T00:35:39.672Z,72.30
2019-05-01T00:38:08.725Z,72.57
2019-05-01T00:40:37.627Z,73.50
2019-05-01T00:43:06.603Z,73.87
2019-05-01T00:45:35.597Z,73.64
2019-05-01T00:48:04.675Z,73.62
2019-05-01T00:50:33.665Z,74.23
2019-05-01T00:53:02.702Z,73.99
2019-05-01T00:55:53.756Z,72.95
2019-05-01T00:58:36.357Z,73.63
2019-05-01T01:01:26.600Z,74.42
2019-05-01T01:03:55.488Z,74.50
2019-05-01T01:06:24.480Z,74.90
2019-05-01T01:08:53.358Z,75.14
2019-05-01T01:11:22.231Z,75.22
2019-05-01T01:13:51.285Z,74.95
2019-05-01T01:16:20.094Z,75.45
2019-05-01T01:18:48.967Z,75.15
2019-05-01T01:21:18.048Z,76.02
2019-05-01T01:23:47.255Z,75.34
2019-05-01T01:26:16.278Z,75.82
2019-05-01T01:28:45.234Z,76.11
2019-05-01T01:31:14.231Z,76.34
2019-05-01T01:33:43.168Z,76.90
2019-05-01T01:36:12.165Z,76.97
2019-05-01T01:38:41.149Z,76.90
2019-05-01T01:41:10.351Z,77.24
2019-05-01T01:43:56.284Z,77.51
2019-05-01T01:46:27.267Z,77.45
2019-05-01T01:48:56.538Z,77.93
2019-05-01T01:51:25.870Z,78.70
2019-05-01T01:53:55.571Z,78.81
2019-05-01T01:56:24.571Z,78.12
2019-05-01T01:58:54.048Z,78.42
2019-05-01T02:01:39.492Z,78.14
2019-05-01T02:04:24.783Z,78.63
2019-05-01T02:06:53.732Z,78.42
2019-05-01T02:09:22.715Z,78.60
2019-05-01T02:11:51.760Z,79.10
2019-05-01T02:14:20.650Z,78.59
2019-05-01T02:16:49.663Z,79.31
2019-05-01T02:19:18.623Z,79.71
2019-05-01T02:21:47.651Z,79.95
2019-05-01T02:24:16.656Z,79.95
2019-05-01T02:26:48.494Z,79.37
2019-05-01T02:29:32.438Z,79.59
2019-05-01T02:32:01.891Z,79.89
2019-05-01T02:34:31.490Z,79.84
2019-05-01T02:37:03.577Z,80.00
2019-05-01T02:39:34.809Z,80.62
2019-05-01T02:42:04.196Z,80.46
2019-05-01T02:44:39.938Z,80.32
2019-05-01T02:47:12.135Z,80.54
2019-05-01T02:49:54.810Z,80.86
2019-05-01T02:52:28.538Z,80.95
2019-05-01T02:55:01.229Z,81.28
2019-05-01T02:57:31.663Z,81.16
2019-05-01T03:00:00.886Z,80.87
2019-05-01T03:02:30.562Z,81.22
2019-05-01T03:05:00.344Z,81.14
2019-05-01T03:07:33.847Z,81.28
2019-05-01T03:10:08.973Z,81.84
2019-05-01T03:12:39.020Z,82.07
2019-05-01T03:15:09.050Z,82.04
2019-05-01T03:18:17.465Z,81.16
2019-05-01T03:21:00.702Z,81.34
2019-05-01T03:23:37.749Z,81.91
2019-05-01T03:26:06.845Z,81.79
2019-05-01T03:28:36.016Z,81.72
2019-05-01T03:31:05.690Z,80.97
2019-05-01T03:33:34.984Z,80.92
2019-05-01T03:36:04.945Z,81.65
2019-05-01T03:38:34.669Z,81.80
2019-05-01T03:41:03.934Z,82.21
2019-05-01T03:43:33.840Z,82.01
2019-05-01T03:46:03.215Z,81.65
2019-05-01T03:48:33.958Z,81.72
2019-05-01T03:51:03.486Z,81.68
2019-05-01T03:53:32.669Z,81.16
2019-05-01T03:56:01.939Z,81.40
2019-05-01T03:58:31.590Z,80.94
2019-05-01T04:01:13.105Z,81.39
2019-05-01T04:03:46.184Z,82.19
2019-05-01T04:06:15.558Z,82.69
2019-05-01T04:08:45.077Z,82.75
2019-05-01T04:11:14.376Z,82.80
2019-05-01T04:13:43.496Z,82.31
2019-05-01T04:16:13.206Z,82.48
2019-05-01T04:18:44.391Z,82.70
2019-05-01T04:21:14.798Z,83.09
2019-05-01T04:23:43.892Z,82.55
2019-05-01T04:26:13.822Z,83.00
2019-05-01T04:29:01.996Z,82.71
2019-05-01T04:31:45.115Z,82.49
2019-05-01T04:34:22.916Z,82.28
2019-05-01T04:36:54.630Z,82.40
2019-05-01T04:39:23.679Z,83.17
2019-05-01T04:41:53.532Z,81.79
2019-05-01T04:44:22.792Z,81.24
2019-05-01T04:46:53.544Z,81.24
2019-05-01T04:49:22.655Z,81.25
2019-05-01T04:51:51.793Z,80.98
2019-05-01T04:54:21.379Z,80.94
2019-05-01T04:56:50.597Z,80.17
2019-05-01T04:59:19.810Z,80.25
2019-05-01T05:01:58.112Z,79.97
2019-05-01T05:04:27.639Z,79.62
2019-05-01T05:06:56.867Z,79.43
2019-05-01T05:09:46.650Z,79.31
2019-05-01T05:12:23.447Z,79.31
2019-05-01T05:14:56.725Z,79.22
2019-05-01T05:17:26.661Z,79.02
2019-05-01T05:19:56.220Z,78.50
2019-05-01T05:22:25.751Z,77.92
2019-05-01T05:24:55.449Z,78.09
2019-05-01T05:27:25.241Z,78.24
2019-05-01T05:29:57.344Z,77.42
2019-05-01T05:32:28.561Z,77.25
2019-05-01T05:34:59.382Z,77.07
2019-05-01T05:37:36.453Z,76.43
2019-05-01T05:40:05.971Z,75.88
2019-05-01T05:42:35.251Z,75.58
2019-05-01T05:45:04.761Z,75.10
2019-05-01T05:47:33.972Z,74.35
2019-05-01T05:50:03.368Z,73.79
2019-05-01T05:52:47.009Z,73.23
2019-05-01T05:55:44.146Z,72.85
2019-05-01T05:58:22.148Z,72.57
2019-05-01T06:01:30.417Z,72.47
2019-05-01T06:04:19.400Z,72.03
2019-05-01T06:07:08.197Z,71.25
2019-05-01T06:09:48.549Z,69.83
2019-05-01T06:12:25.126Z,70.04
2019-05-01T06:15:08.173Z,69.44
2019-05-01T06:17:42.184Z,68.52
2019-05-01T06:20:37.480Z,68.09
2019-05-01T06:23:37.709Z,68.02
2019-05-01T06:26:24.969Z,67.06
2019-05-01T06:28:55.863Z,65.58
2019-05-01T06:31:25.841Z,65.12
2019-05-01T06:33:55.656Z,63.04
2019-05-01T06:36:24.606Z,63.04
2019-05-01T06:38:54.377Z,61.39
2019-05-01T06:41:28.807Z,59.88
2019-05-01T06:44:02.100Z,58.95
2019-05-01T06:47:06.229Z,58.22
2019-05-01T06:50:12.282Z,57.81
2019-05-01T06:52:41.785Z,59.11
2019-05-01T06:55:10.855Z,58.56
2019-05-01T06:57:43.809Z,57.78
2019-05-01T07:00:18.108Z,56.33
2019-05-01T07:02:49.100Z,54.17
2019-05-01T07:05:20.082Z,50.38
2019-05-01T07:07:53.277Z,46.78
2019-05-01T07:10:30.593Z,45.86
2019-05-01T07:12:51.660Z,42.61
2019-05-01T07:15:21.892Z,40.96
2019-05-01T07:17:51.483Z,38.62
2019-05-01T07:20:54.711Z,39.05
2019-05-01T07:23:24.111Z,38.53
2019-05-01T07:25:53.203Z,36.76
2019-05-01T07:28:23.062Z,35.88
2019-05-01T07:30:58.835Z,35.12
2019-05-01T07:33:28.044Z,34.72
2019-05-01T07:35:57.242Z,36.48
2019-05-01T07:38:26.246Z,36.96
2019-05-01T07:40:58.789Z,36.81
2019-05-01T07:43:42.343Z,36.03
2019-05-01T07:46:18.451Z,36.05
2019-05-01T07:48:48.877Z,36.87
2019-05-01T07:51:17.822Z,36.51
2019-05-01T07:53:46.957Z,35.21
2019-05-01T07:56:17.256Z,36.58
2019-05-01T07:58:47.443Z,34.82
2019-05-01T08:01:54.360Z,34.92
2019-05-01T08:04:35.909Z,38.00
2019-05-01T08:06:57.126Z,36.86
2019-05-01T08:09:23.999Z,36.86
2019-05-01T08:11:52.935Z,34.79
2019-05-01T08:14:21.954Z,36.04
2019-05-01T08:16:50.978Z,37.30
2019-05-01T08:19:28.058Z,39.11
2019-05-01T08:22:05.254Z,40.29
2019-05-01T08:24:34.428Z,41.73
2019-05-01T08:27:03.361Z,42.97
2019-05-01T08:29:54.579Z,42.89
2019-05-01T08:32:41.370Z,43.07
2019-05-01T08:35:12.532Z,43.66
2019-05-01T08:37:41.493Z,44.44
2019-05-01T08:40:10.972Z,45.16
2019-05-01T08:42:42.672Z,45.47
2019-05-01T08:45:48.136Z,45.00
2019-05-01T08:48:30.733Z,45.04
2019-05-01T08:51:00.516Z,45.37
2019-05-01T08:53:29.461Z,45.13
2019-05-01T08:55:58.481Z,44.47
2019-05-01T08:58:27.399Z,44.58
2019-05-01T09:00:56.397Z,44.40
2019-05-01T09:03:25.256Z,44.58
2019-05-01T09:05:57.559Z,44.58
2019-05-01T09:08:27.087Z,44.40
2019-05-01T09:11:00.271Z,44.22
2019-05-01T09:13:26.796Z,44.21
2019-05-01T09:15:55.799Z,44.75
2019-05-01T09:18:24.950Z,44.74
2019-05-01T09:20:56.232Z,43.49
2019-05-01T09:23:25.253Z,42.87
2019-05-01T09:26:06.768Z,42.62
2019-05-01T09:28:39.794Z,42.13
2019-05-01T09:31:08.901Z,42.13
2019-05-01T09:33:37.847Z,42.00
2019-05-01T09:36:07.140Z,42.64
2019-05-01T09:38:36.097Z,42.35
2019-05-01T09:41:05.589Z,42.41
2019-05-01T09:43:35.628Z,42.74
2019-05-01T09:46:05.594Z,42.39
2019-05-01T09:48:34.503Z,41.99
2019-05-01T09:51:25.921Z,40.77
2019-05-01T09:54:05.633Z,40.57
2019-05-01T09:56:32.935Z,40.32
2019-05-01T09:59:01.976Z,39.54
2019-05-01T10:01:32.887Z,38.75
2019-05-01T10:04:01.559Z,39.23
2019-05-01T10:06:30.511Z,38.12
2019-05-01T10:08:59.526Z,38.37
2019-05-01T10:11:28.528Z,38.58
2019-05-01T10:13:58.507Z,35.91
2019-05-01T10:16:28.256Z,36.03
2019-05-01T10:18:57.083Z,35.25
2019-05-01T10:21:27.275Z,35.10
2019-05-01T10:23:56.811Z,34.07
2019-05-01T10:26:27.344Z,34.26
2019-05-01T10:29:13.881Z,35.78
2019-05-01T10:32:16.997Z,35.49
2019-05-01T10:34:52.229Z,35.51
2019-05-01T10:37:23.569Z,35.98
2019-05-01T10:39:54.005Z,34.97
2019-05-01T10:42:22.403Z,34.13
2019-05-01T10:44:51.403Z,33.93
2019-05-01T10:47:20.420Z,33.29
2019-05-01T10:49:49.249Z,32.95
2019-05-01T10:52:18.233Z,32.74
2019-05-01T10:54:47.206Z,31.24
2019-05-01T10:57:16.156Z,31.10
2019-05-01T10:59:45.047Z,31.58
2019-05-01T11:02:15.701Z,31.93
2019-05-01T11:04:44.779Z,31.67
2019-05-01T11:07:13.566Z,31.75
2019-05-01T11:09:42.898Z,32.54
2019-05-01T11:12:11.947Z,31.21
2019-05-01T11:14:40.978Z,29.13
2019-05-01T11:17:09.837Z,28.82
2019-05-01T11:19:38.797Z,28.37
2019-05-01T11:22:07.667Z,29.12
2019-05-01T11:24:36.596Z,29.32
2019-05-01T11:27:05.598Z,30.62
2019-05-01T11:29:34.417Z,28.17
2019-05-01T11:32:20.251Z,29.19
2019-05-01T11:34:56.152Z,26.81
2019-05-01T11:37:59.436Z,26.96
2019-05-01T11:40:32.278Z,30.33
2019-05-01T11:43:02.802Z,31.01
2019-05-01T11:45:31.706Z,30.55
2019-05-01T11:48:00.650Z,30.73
2019-05-01T11:50:29.762Z,29.87
2019-05-01T11:52:58.699Z,31.21
2019-05-01T11:55:27.535Z,28.20
2019-05-01T11:57:56.427Z,30.70
2019-05-01T12:00:25.956Z,32.35
2019-05-01T12:02:54.802Z,31.97
2019-05-01T12:05:23.760Z,32.09
2019-05-01T12:07:52.604Z,31.30
2019-05-01T12:10:21.754Z,31.63
2019-05-01T12:12:50.837Z,32.16
2019-05-01T12:15:20.517Z,32.33
2019-05-01T12:17:50.180Z,32.23
2019-05-01T12:20:21.337Z,32.62
2019-05-01T12:22:51.532Z,32.21
2019-05-01T12:25:21.130Z,32.02
2019-05-01T12:27:50.081Z,32.02
2019-05-01T12:30:19.653Z,32.53
2019-05-01T12:32:49.106Z,31.42
2019-05-01T12:35:18.108Z,31.69
2019-05-01T12:37:47.034Z,31.49
2019-05-01T12:40:18.418Z,31.02
2019-05-01T12:42:47.540Z,30.73
2019-05-01T12:45:17.517Z,30.25
2019-05-01T12:47:49.792Z,29.89
2019-05-01T12:50:19.411Z,29.37
2019-05-01T12:53:02.691Z,29.01
2019-05-01T12:55:45.680Z,28.96
2019-05-01T12:58:14.596Z,29.27
2019-05-01T13:00:46.727Z,28.91
2019-05-01T13:03:15.744Z,28.65
2019-05-01T13:05:45.361Z,28.70
2019-05-01T13:08:14.350Z,28.39
2019-05-01T13:10:43.411Z,28.22
2019-05-01T13:13:12.356Z,27.76
2019-05-01T13:15:41.384Z,27.78
2019-05-01T13:18:10.396Z,27.96
2019-05-01T13:20:39.362Z,28.21
2019-05-01T13:23:09.104Z,27.73
2019-05-01T13:25:38.092Z,27.26
2019-05-01T13:28:24.894Z,26.77
2019-05-01T13:31:12.099Z,25.65
2019-05-01T13:33:41.171Z,24.89
2019-05-01T13:36:10.395Z,24.31
2019-05-01T13:38:39.309Z,23.85
2019-05-01T13:41:08.175Z,22.98
2019-05-01T13:43:37.617Z,23.78
2019-05-01T13:46:06.623Z,23.93
2019-05-01T13:48:35.622Z,23.83
2019-05-01T13:51:04.572Z,23.39
2019-05-01T13:53:33.555Z,22.45
2019-05-01T13:56:02.598Z,21.78
2019-05-01T13:58:31.710Z,21.13
2019-05-01T14:01:00.762Z,20.15
2019-05-01T14:03:29.800Z,20.19
2019-05-01T14:05:58.699Z,21.75
2019-05-01T14:08:27.722Z,20.23
2019-05-01T14:10:56.819Z,19.95
2019-05-01T14:13:25.755Z,20.66
2019-05-01T14:15:54.782Z,19.90
2019-05-01T14:18:23.877Z,18.89
2019-05-01T14:21:17.553Z,19.08
2019-05-01T14:24:04.616Z,19.30
2019-05-01T14:26:33.985Z,19.30
2019-05-01T14:29:02.999Z,20.87
2019-05-01T14:31:31.924Z,20.98
2019-05-01T14:34:00.857Z,20.23
2019-05-01T14:36:29.755Z,20.60
2019-05-01T14:38:58.821Z,20.92
2019-05-01T14:41:27.710Z,21.15
2019-05-01T14:43:56.872Z,20.07
2019-05-01T14:46:25.802Z,19.93
2019-05-01T14:48:54.712Z,19.88
2019-05-01T14:51:23.637Z,19.09
2019-05-01T14:53:52.629Z,19.63
2019-05-01T14:56:21.525Z,19.81
2019-05-01T14:58:50.464Z,19.81
2019-05-01T15:01:19.385Z,19.85
2019-05-01T15:03:48.480Z,20.61
2019-05-01T15:06:17.370Z,20.43
2019-05-01T15:08:46.454Z,21.30
2019-05-01T15:11:15.304Z,22.48
2019-05-01T15:13:50.626Z,20.93
2019-05-01T15:16:27.214Z,20.99
2019-05-01T15:19:04.598Z,19.81
2019-05-01T15:21:34.090Z,18.38
2019-05-01T15:24:02.884Z,19.10
2019-05-01T15:26:31.829Z,19.50
2019-05-01T15:29:00.770Z,19.23
2019-05-01T15:31:29.911Z,18.88
2019-05-01T15:33:58.751Z,18.00
2019-05-01T15:36:27.694Z,19.16
2019-05-01T15:38:57.213Z,19.56
2019-05-01T15:41:39.217Z,18.94
2019-05-01T15:44:19.396Z,18.82
2019-05-01T15:46:48.283Z,19.02
2019-05-01T15:49:19.244Z,19.37
2019-05-01T15:51:48.211Z,18.46
2019-05-01T15:54:17.193Z,19.67
2019-05-01T15:56:46.075Z,19.58
2019-05-01T15:59:15.041Z,16.42
2019-05-01T16:01:44.003Z,17.73
2019-05-01T16:04:12.983Z,18.34
2019-05-01T16:06:41.878Z,18.24
2019-05-01T16:09:11.155Z,17.14
2019-05-01T16:12:02.017Z,17.33
2019-05-01T16:14:31.028Z,17.44
2019-05-01T16:17:00.027Z,16.92
2019-05-01T16:19:29.046Z,17.03
2019-05-01T16:21:58.340Z,16.56
2019-05-01T16:24:27.199Z,18.35
2019-05-01T16:26:56.018Z,17.77
2019-05-01T16:29:24.816Z,17.32
2019-05-01T16:31:53.775Z,16.92
2019-05-01T16:34:22.580Z,16.98
2019-05-01T16:36:51.556Z,17.97
2019-05-01T16:39:51.925Z,17.51
2019-05-01T16:42:24.650Z,17.74
2019-05-01T16:44:53.449Z,16.53
2019-05-01T16:47:22.375Z,16.04
2019-05-01T16:49:51.300Z,17.73
2019-05-01T16:52:22.777Z,18.01
2019-05-01T16:54:59.141Z,17.53
2019-05-01T16:57:22.572Z,17.47
2019-05-01T16:59:51.473Z,17.52
2019-05-01T17:02:33.731Z,17.21
2019-05-01T17:05:15.159Z,15.78
2019-05-01T17:07:52.620Z,17.09
2019-05-01T17:10:26.622Z,16.71
2019-05-01T17:12:55.858Z,16.62
2019-05-01T17:15:41.766Z,17.11
2019-05-01T17:18:11.000Z,17.77
2019-05-01T17:20:40.011Z,17.89
2019-05-01T17:23:08.893Z,18.42
2019-05-01T17:25:37.919Z,18.87
2019-05-01T17:28:08.363Z,17.94
2019-05-01T17:30:40.070Z,18.55
2019-05-01T17:33:10.550Z,18.03
2019-05-01T17:35:41.824Z,18.03
2019-05-01T17:38:10.370Z,18.50
2019-05-01T17:40:39.288Z,18.36
2019-05-01T17:43:13.490Z,19.67
2019-05-01T17:45:38.855Z,20.04
2019-05-01T17:48:07.952Z,20.72
2019-05-01T17:50:36.806Z,21.03
2019-05-01T17:53:06.181Z,21.87
2019-05-01T17:55:35.167Z,22.55
2019-05-01T17:58:04.076Z,23.32
2019-05-01T18:01:01.231Z,24.27
2019-05-01T18:03:49.478Z,24.51
2019-05-01T18:06:25.653Z,24.80
2019-05-01T18:09:02.968Z,25.31
2019-05-01T18:11:25.102Z,25.19
2019-05-01T18:13:54.024Z,26.47
2019-05-01T18:16:23.033Z,25.80
2019-05-01T18:18:51.893Z,25.88
2019-05-01T18:21:20.945Z,26.92
2019-05-01T18:24:18.911Z,26.40
2019-05-01T18:26:53.100Z,27.37
2019-05-01T18:29:44.641Z,28.03
2019-05-01T18:32:18.981Z,28.72
2019-05-01T18:34:47.948Z,29.69
2019-05-01T18:37:22.502Z,30.24
2019-05-01T18:39:51.617Z,31.46
2019-05-01T18:42:20.589Z,31.46
2019-05-01T18:44:49.675Z,30.82
2019-05-01T18:47:18.855Z,30.82
2019-05-01T18:49:47.823Z,30.34
2019-05-01T18:52:16.668Z,31.36
2019-05-01T18:54:45.579Z,31.85
2019-05-01T18:57:14.673Z,31.03
2019-05-01T18:59:43.571Z,32.53
2019-05-01T19:02:12.563Z,33.01
2019-05-01T19:04:41.591Z,33.56
2019-05-01T19:07:10.411Z,34.95
2019-05-01T19:09:39.476Z,35.56
2019-05-01T19:12:09.943Z,35.54
2019-05-01T19:14:38.961Z,36.26
2019-05-01T19:17:07.782Z,35.88
2019-05-01T19:19:36.866Z,36.63
2019-05-01T19:22:06.160Z,37.35
2019-05-01T19:24:38.053Z,37.68
2019-05-01T19:27:05.789Z,38.32
2019-05-01T19:29:34.766Z,38.44
2019-05-01T19:32:03.937Z,39.37
2019-05-01T19:34:32.787Z,39.60
2019-05-01T19:37:01.816Z,39.03
2019-05-01T19:39:42.994Z,39.60
2019-05-01T19:42:01.502Z,40.14
2019-05-01T19:44:30.560Z,39.66
2019-05-01T19:46:59.576Z,40.39
2019-05-01T19:49:29.678Z,40.57
2019-05-01T19:52:00.714Z,40.79
2019-05-01T19:54:30.092Z,42.27
2019-05-01T19:56:59.127Z,42.32
2019-05-01T19:59:28.031Z,42.45
2019-05-01T20:01:57.100Z,42.71
2019-05-01T20:04:25.972Z,42.34
2019-05-01T20:06:54.965Z,43.46
2019-05-01T20:09:24.214Z,43.39
2019-05-01T20:11:53.513Z,43.33
2019-05-01T20:14:22.399Z,43.43
2019-05-01T20:16:51.475Z,44.17
2019-05-01T20:19:20.395Z,44.68
2019-05-01T20:21:49.434Z,44.62
2019-05-01T20:24:19.285Z,44.95
2019-05-01T20:26:48.360Z,45.50
2019-05-01T20:29:17.866Z,45.37
2019-05-01T20:31:50.626Z,46.29
2019-05-01T20:34:18.767Z,47.67
2019-05-01T20:36:47.838Z,47.60
2019-05-01T20:39:16.825Z,47.92
2019-05-01T20:41:45.784Z,47.75
2019-05-01T20:44:23.443Z,48.42
2019-05-01T20:46:45.290Z,50.62
2019-05-01T20:49:14.269Z,49.62
2019-05-01T20:51:43.135Z,49.96
2019-05-01T20:54:12.009Z,50.60
2019-05-01T20:57:03.557Z,51.19
2019-05-01T20:59:35.269Z,51.84
2019-05-01T21:02:07.657Z,52.42
2019-05-01T21:04:44.191Z,52.12
2019-05-01T21:07:32.198Z,53.01
2019-05-01T21:10:02.267Z,52.13
2019-05-01T21:12:31.196Z,52.65
2019-05-01T21:15:00.036Z,51.67
2019-05-01T21:17:28.923Z,51.51
2019-05-01T21:19:57.979Z,51.38
2019-05-01T21:22:27.060Z,51.66
2019-05-01T21:24:55.994Z,50.87
2019-05-01T21:27:25.032Z,50.99
2019-05-01T21:29:54.008Z,51.27
2019-05-01T21:32:27.107Z,51.57
2019-05-01T21:34:53.755Z,51.48
2019-05-01T21:37:22.651Z,51.83
2019-05-01T21:39:53.663Z,51.40
2019-05-01T21:42:24.403Z,51.39
2019-05-01T21:44:53.258Z,51.56
2019-05-01T21:47:23.687Z,51.65
2019-05-01T21:49:53.048Z,51.54
2019-05-01T21:52:26.310Z,51.41
2019-05-01T21:54:55.449Z,51.36
2019-05-01T21:57:24.511Z,51.19
2019-05-01T21:59:55.339Z,50.33
2019-05-01T22:02:24.482Z,50.07
2019-05-01T22:04:53.402Z,50.41
2019-05-01T22:07:23.777Z,50.48
2019-05-01T22:09:53.101Z,50.81
2019-05-01T22:12:22.368Z,50.96
2019-05-01T22:14:55.761Z,50.70
2019-05-01T22:17:52.120Z,50.99
2019-05-01T22:20:27.969Z,51.24
2019-05-01T22:23:04.028Z,50.98
2019-05-01T22:25:43.250Z,51.04
2019-05-01T22:28:19.047Z,50.81
2019-05-01T22:30:56.163Z,50.94
2019-05-01T22:33:45.958Z,51.25
2019-05-01T22:36:15.103Z,51.08
2019-05-01T22:38:46.574Z,51.04
2019-05-01T22:41:14.629Z,51.15
2019-05-01T22:43:43.642Z,51.49
2019-05-01T22:46:19.467Z,51.43
2019-05-01T22:48:48.450Z,51.39
2019-05-01T22:51:21.192Z,51.47
2019-05-01T22:53:54.551Z,51.22
2019-05-01T22:56:24.872Z,51.63
2019-05-01T22:58:54.001Z,51.47
2019-05-01T23:01:28.495Z,51.74
2019-05-01T23:03:59.816Z,52.12
2019-05-01T23:06:28.996Z,52.13
2019-05-01T23:08:58.035Z,52.24
2019-05-01T23:11:29.063Z,52.27
2019-05-01T23:13:58.071Z,52.08
2019-05-01T23:16:30.886Z,51.87
2019-05-01T23:18:59.789Z,51.79
2019-05-01T23:21:28.774Z,51.48
2019-05-01T23:24:01.840Z,51.67
2019-05-01T23:26:28.718Z,51.73
2019-05-01T23:28:57.603Z,51.54
2019-05-01T23:31:27.049Z,51.75
2019-05-01T23:33:56.040Z,51.90
2019-05-01T23:36:24.914Z,52.44
2019-05-01T23:38:53.935Z,52.54
2019-05-01T23:41:43.791Z,53.05
2019-05-01T23:43:53.642Z,53.23
2019-05-01T23:46:22.537Z,53.14
2019-05-01T23:48:51.536Z,53.00
2019-05-01T23:51:23.682Z,53.24
2019-05-01T23:53:51.129Z,53.37
2019-05-01T23:56:20.117Z,53.51
2019-05-01T23:58:49.110Z,53.92
